createdAt,value
2022-09-20T00:01:32.514Z,11.26
2022-09-20T00:04:05.334Z,11.25
2022-09-20T00:06:34.581Z,11.24
2022-09-20T00:09:03.116Z,11.24
2022-09-20T00:11:34.136Z,11.26
2022-09-20T00:14:05.953Z,11.24
2022-09-20T00:16:38.999Z,11.26
2022-09-20T00:19:07.620Z,11.25
2022-09-20T00:21:36.408Z,11.26
2022-09-20T00:24:04.543Z,11.26
2022-09-20T00:26:31.743Z,11.27
2022-09-20T00:28:59.309Z,11.26
2022-09-20T00:31:26.805Z,11.28
2022-09-20T00:34:14.974Z,11.28
2022-09-20T00:36:42.286Z,11.27
2022-09-20T00:39:13.433Z,11.26
2022-09-20T00:41:40.462Z,11.25
2022-09-20T00:44:48.010Z,11.26
2022-09-20T00:47:22.233Z,11.25
2022-09-20T00:49:56.174Z,11.22
2022-09-20T00:52:24.555Z,11.21
2022-09-20T00:54:51.791Z,11.20
2022-09-20T00:57:18.966Z,11.18
2022-09-20T00:59:51.355Z,11.17
2022-09-20T01:02:25.873Z,11.16
2022-09-20T01:04:54.332Z,11.18
2022-09-20T01:07:23.617Z,11.18
2022-09-20T01:09:51.969Z,11.17
2022-09-20T01:12:25.972Z,11.16
2022-09-20T01:14:54.501Z,11.14
2022-09-20T01:17:26.641Z,11.12
2022-09-20T01:20:22.459Z,11.10
2022-09-20T01:23:37.122Z,11.10
2022-09-20T01:26:38.059Z,11.08
2022-09-20T01:29:42.170Z,11.08
2022-09-20T01:32:16.405Z,11.06
2022-09-20T01:34:51.099Z,11.03
2022-09-20T01:37:36.743Z,11.05
2022-09-20T01:40:48.183Z,11.02
2022-09-20T01:43:41.679Z,11.00
2022-09-20T01:46:32.260Z,11.01
2022-09-20T01:49:47.267Z,10.99
2022-09-20T01:53:04.038Z,10.93
2022-09-20T01:56:08.579Z,10.85
2022-09-20T01:59:23.749Z,10.78
2022-09-20T02:01:54.540Z,10.73
2022-09-20T02:05:02.282Z,10.73
2022-09-20T02:08:21.876Z,10.72
2022-09-20T02:11:53.275Z,10.71
2022-09-20T02:14:41.801Z,10.72
2022-09-20T02:17:24.227Z,10.74
2022-09-20T02:20:14.348Z,10.72
2022-09-20T02:23:30.530Z,10.70
2022-09-20T02:26:11.474Z,10.69
2022-09-20T02:28:45.055Z,10.67
2022-09-20T02:31:39.233Z,10.68
2022-09-20T02:34:30.500Z,10.69
2022-09-20T02:37:36.879Z,10.66
2022-09-20T02:40:37.938Z,10.61
2022-09-20T02:43:37.465Z,10.61
2022-09-20T02:46:41.068Z,10.59
2022-09-20T02:49:29.258Z,10.56
2022-09-20T02:52:32.673Z,10.61
2022-09-20T02:55:36.830Z,10.62
2022-09-20T02:58:38.078Z,10.63
2022-09-20T03:01:24.262Z,10.67
2022-09-20T03:04:09.587Z,10.68
2022-09-20T03:07:05.032Z,10.69
2022-09-20T03:09:47.399Z,10.70
2022-09-20T03:12:40.688Z,10.73
2022-09-20T03:15:43.041Z,10.72
2022-09-20T03:18:16.191Z,10.71
2022-09-20T03:21:31.563Z,10.71
2022-09-20T03:24:32.862Z,10.71
2022-09-20T03:27:43.280Z,10.70
2022-09-20T03:30:48.845Z,10.70
2022-09-20T03:33:29.612Z,10.68
2022-09-20T03:36:08.908Z,10.70
2022-09-20T03:39:12.131Z,10.73
2022-09-20T03:42:12.651Z,10.72
2022-09-20T03:45:14.093Z,10.72
2022-09-20T03:48:09.034Z,10.72
2022-09-20T03:51:23.730Z,10.71
2022-09-20T03:54:49.026Z,10.72
2022-09-20T03:57:43.799Z,10.71
2022-09-20T04:00:56.918Z,10.69
2022-09-20T04:04:04.770Z,10.65
2022-09-20T04:06:58.290Z,10.63
2022-09-20T04:10:10.135Z,10.61
2022-09-20T04:13:21.171Z,10.61
2022-09-20T04:16:34.679Z,10.61
2022-09-20T04:19:11.975Z,10.61
2022-09-20T04:21:56.809Z,10.61
2022-09-20T04:24:33.270Z,10.61
2022-09-20T04:27:18.330Z,10.60
2022-09-20T04:30:21.488Z,10.55
2022-09-20T04:33:14.149Z,10.51
2022-09-20T04:36:30.370Z,10.49
2022-09-20T04:40:14.950Z,10.49
2022-09-20T04:43:18.621Z,10.48
2022-09-20T04:46:30.061Z,10.50
2022-09-20T04:49:20.317Z,10.48
2022-09-20T04:52:03.994Z,10.46
2022-09-20T04:55:13.908Z,10.46
2022-09-20T04:57:58.899Z,10.47
2022-09-20T05:00:48.710Z,10.48
2022-09-20T05:03:52.946Z,10.52
2022-09-20T05:06:52.285Z,10.55
2022-09-20T05:10:15.418Z,10.56
2022-09-20T05:13:22.029Z,10.55
2022-09-20T05:16:26.413Z,10.52
2022-09-20T05:19:13.139Z,10.47
2022-09-20T05:21:56.888Z,10.39
2022-09-20T05:25:29.876Z,10.33
2022-09-20T05:28:34.357Z,10.23
2022-09-20T05:31:41.717Z,10.16
2022-09-20T05:34:26.981Z,10.10
2022-09-20T05:37:35.145Z,10.06
2022-09-20T05:41:05.777Z,10.02
2022-09-20T05:43:43.154Z,9.95
2022-09-20T05:46:46.168Z,9.94
2022-09-20T05:49:25.300Z,9.93
2022-09-20T05:52:18.371Z,9.98
2022-09-20T05:55:34.047Z,10.01
2022-09-20T05:58:42.398Z,10.02
2022-09-20T06:01:26.877Z,10.04
2022-09-20T06:04:18.714Z,10.09
2022-09-20T06:07:02.554Z,10.13
2022-09-20T06:10:24.684Z,10.19
2022-09-20T06:13:35.175Z,10.23
2022-09-20T06:16:04.521Z,10.23
2022-09-20T06:18:45.389Z,10.24
2022-09-20T06:21:41.871Z,10.24
2022-09-20T06:24:53.423Z,10.24
2022-09-20T06:27:29.643Z,10.31
2022-09-20T06:30:05.808Z,10.37
2022-09-20T06:32:34.607Z,10.45
2022-09-20T06:35:04.428Z,10.51
2022-09-20T06:38:11.170Z,10.61
2022-09-20T06:41:06.999Z,10.70
2022-09-20T06:43:37.080Z,10.78
2022-09-20T06:46:04.379Z,10.90
2022-09-20T06:48:31.519Z,11.03
2022-09-20T06:50:58.925Z,11.25
2022-09-20T06:53:32.967Z,11.48
2022-09-20T06:56:01.147Z,11.64
2022-09-20T06:58:28.304Z,11.68
2022-09-20T07:00:55.437Z,11.73
2022-09-20T07:03:22.532Z,11.76
2022-09-20T07:05:49.543Z,11.79
2022-09-20T07:08:16.828Z,11.78
2022-09-20T07:10:44.015Z,11.74
2022-09-20T07:13:14.280Z,11.68
2022-09-20T07:15:41.331Z,11.70
2022-09-20T07:18:08.391Z,11.76
2022-09-20T07:20:35.631Z,11.88
2022-09-20T07:23:03.761Z,12.03
2022-09-20T07:25:32.121Z,12.17
2022-09-20T07:27:59.142Z,12.37
2022-09-20T07:30:26.207Z,12.52
2022-09-20T07:32:53.620Z,12.64
2022-09-20T07:35:21.587Z,12.77
2022-09-20T07:37:48.680Z,12.85
2022-09-20T07:40:16.424Z,12.94
2022-09-20T07:42:45.967Z,12.99
2022-09-20T07:45:13.350Z,13.07
2022-09-20T07:47:42.044Z,13.08
2022-09-20T07:50:11.203Z,13.13
2022-09-20T07:52:38.322Z,13.18
2022-09-20T07:55:06.906Z,13.27
2022-09-20T07:57:38.387Z,13.36
2022-09-20T08:00:09.353Z,13.48
2022-09-20T08:02:41.975Z,13.58
2022-09-20T08:05:09.618Z,13.69
2022-09-20T08:07:38.534Z,13.71
2022-09-20T08:10:06.222Z,13.71
2022-09-20T08:15:20.229Z,13.73
2022-09-20T08:17:48.377Z,13.78
2022-09-20T08:20:16.801Z,13.81
2022-09-20T08:22:45.848Z,13.90
2022-09-20T08:25:19.871Z,13.98
2022-09-20T08:27:53.884Z,14.07
2022-09-20T08:30:25.569Z,14.14
2022-09-20T08:32:55.771Z,14.20
2022-09-20T08:35:22.778Z,14.26
2022-09-20T08:37:53.660Z,14.35
2022-09-20T08:40:24.215Z,14.44
2022-09-20T08:42:53.439Z,14.55
2022-09-20T08:45:41.417Z,14.64
2022-09-20T08:48:16.755Z,14.68
2022-09-20T08:50:44.070Z,14.72
2022-09-20T08:53:14.929Z,14.79
2022-09-20T08:55:43.714Z,14.88
2022-09-20T08:58:13.538Z,14.99
2022-09-20T09:00:46.831Z,15.06
2022-09-20T09:03:17.540Z,15.11
2022-09-20T09:05:54.978Z,15.17
2022-09-20T09:08:37.533Z,15.11
2022-09-20T09:11:18.638Z,15.09
2022-09-20T09:14:48.859Z,15.11
2022-09-20T09:17:27.451Z,15.11
2022-09-20T09:19:56.443Z,15.18
2022-09-20T09:22:39.595Z,15.38
2022-09-20T09:25:24.975Z,15.55
2022-09-20T09:28:06.391Z,15.80
2022-09-20T09:30:47.697Z,15.78
2022-09-20T09:33:28.218Z,15.79
2022-09-20T09:36:06.675Z,15.58
2022-09-20T09:38:41.473Z,15.38
2022-09-20T09:41:35.611Z,15.19
2022-09-20T09:44:20.395Z,15.02
2022-09-20T09:46:50.135Z,14.85
2022-09-20T09:49:36.579Z,14.70
2022-09-20T09:52:14.307Z,14.59
2022-09-20T09:54:48.923Z,14.47
2022-09-20T09:57:34.228Z,14.38
2022-09-20T10:00:21.938Z,14.28
2022-09-20T10:03:04.326Z,14.16
2022-09-20T10:06:07.351Z,14.04
2022-09-20T10:09:19.300Z,13.89
2022-09-20T10:12:02.643Z,13.69
2022-09-20T10:15:10.347Z,13.53
2022-09-20T10:18:08.568Z,13.41
2022-09-20T10:20:53.250Z,13.33
2022-09-20T10:24:03.241Z,13.31
2022-09-20T10:26:56.627Z,13.27
2022-09-20T10:29:32.784Z,13.20
2022-09-20T10:32:33.198Z,13.23
2022-09-20T10:36:00.719Z,13.26
2022-09-20T10:38:36.731Z,13.33
2022-09-20T10:41:39.683Z,13.43
2022-09-20T10:44:18.833Z,13.61
2022-09-20T10:46:55.627Z,13.70
2022-09-20T10:49:50.721Z,13.81
2022-09-20T10:52:43.819Z,13.98
2022-09-20T10:55:32.855Z,14.21
2022-09-20T10:58:41.852Z,14.41
2022-09-20T11:01:47.592Z,14.49
2022-09-20T11:04:55.181Z,14.51
2022-09-20T11:07:50.982Z,14.58
2022-09-20T11:10:29.802Z,14.61
2022-09-20T11:13:25.015Z,14.64
2022-09-20T11:16:13.486Z,14.68
2022-09-20T11:18:48.305Z,15.03
2022-09-20T11:21:39.554Z,15.56
2022-09-20T11:24:35.788Z,15.89
2022-09-20T11:27:15.943Z,16.13
2022-09-20T11:30:08.277Z,16.22
2022-09-20T11:32:44.533Z,16.36
2022-09-20T11:35:11.506Z,16.50
2022-09-20T11:37:56.379Z,16.73
2022-09-20T11:40:32.638Z,16.92
2022-09-20T11:43:06.458Z,16.97
2022-09-20T11:45:35.783Z,16.89
2022-09-20T11:48:33.432Z,16.74
2022-09-20T11:51:34.207Z,16.64
2022-09-20T11:54:58.406Z,16.56
2022-09-20T11:57:25.927Z,16.51
2022-09-20T12:00:01.642Z,16.54
2022-09-20T12:02:40.739Z,16.59
2022-09-20T12:05:43.823Z,16.73
2022-09-20T12:08:40.402Z,16.80
2022-09-20T12:11:13.233Z,16.80
2022-09-20T12:13:52.153Z,16.79
2022-09-20T12:16:46.848Z,16.76
2022-09-20T12:19:36.559Z,16.67
2022-09-20T12:22:04.118Z,16.64
2022-09-20T12:24:44.541Z,16.58
2022-09-20T12:27:26.399Z,16.55
2022-09-20T12:30:21.591Z,16.51
2022-09-20T12:32:57.866Z,16.47
2022-09-20T12:35:38.951Z,16.61
2022-09-20T12:38:21.386Z,16.71
2022-09-20T12:41:27.934Z,16.80
2022-09-20T12:44:22.320Z,17.02
2022-09-20T12:47:12.600Z,17.12
2022-09-20T12:50:04.371Z,17.12
2022-09-20T12:52:57.673Z,17.21
2022-09-20T12:55:28.044Z,17.24
2022-09-20T12:58:18.877Z,17.23
2022-09-20T13:01:14.570Z,17.16
2022-09-20T13:03:48.346Z,17.04
2022-09-20T13:06:16.675Z,16.90
2022-09-20T13:09:08.545Z,16.80
2022-09-20T13:11:43.756Z,16.69
2022-09-20T13:14:18.836Z,16.64
2022-09-20T13:17:05.372Z,16.63
2022-09-20T13:19:39.007Z,16.60
2022-09-20T13:22:14.848Z,16.56
2022-09-20T13:24:49.199Z,16.51
2022-09-20T13:27:23.814Z,16.46
2022-09-20T13:29:51.591Z,16.41
2022-09-20T13:32:25.404Z,16.56
2022-09-20T13:35:19.144Z,16.99
2022-09-20T13:38:05.640Z,17.34
2022-09-20T13:40:42.340Z,17.70
2022-09-20T13:43:31.310Z,18.03
2022-09-20T13:46:08.227Z,18.22
2022-09-20T13:48:35.730Z,18.38
2022-09-20T13:51:03.302Z,18.54
2022-09-20T13:53:42.119Z,18.65
2022-09-20T13:56:19.520Z,18.80
2022-09-20T13:58:46.861Z,18.88
2022-09-20T14:01:32.695Z,18.96
2022-09-20T14:04:14.585Z,19.01
2022-09-20T14:06:42.532Z,19.11
2022-09-20T14:09:23.608Z,19.25
2022-09-20T14:11:53.318Z,19.27
2022-09-20T14:14:22.976Z,19.23
2022-09-20T14:16:52.087Z,19.21
2022-09-20T14:19:35.969Z,19.30
2022-09-20T14:22:05.402Z,19.34
2022-09-20T14:24:37.181Z,19.44
2022-09-20T14:27:26.402Z,19.45
2022-09-20T14:29:56.282Z,19.31
2022-09-20T14:32:54.418Z,19.16
2022-09-20T14:35:23.090Z,18.95
2022-09-20T14:38:02.643Z,18.74
2022-09-20T14:40:44.160Z,18.52
2022-09-20T14:43:36.236Z,18.29
2022-09-20T14:46:16.214Z,18.15
2022-09-20T14:48:45.442Z,18.08
2022-09-20T14:51:18.862Z,18.00
2022-09-20T14:53:52.774Z,17.89
2022-09-20T14:56:51.685Z,17.76
2022-09-20T14:59:20.974Z,17.64
2022-09-20T15:02:10.183Z,17.50
2022-09-20T15:04:40.542Z,17.31
2022-09-20T15:07:11.738Z,17.22
2022-09-20T15:09:39.090Z,17.06
2022-09-20T15:12:16.952Z,16.92
2022-09-20T15:14:46.098Z,16.91
2022-09-20T15:17:18.351Z,16.95
2022-09-20T15:19:49.075Z,16.97
2022-09-20T15:22:16.824Z,17.05
2022-09-20T15:24:44.745Z,17.10
2022-09-20T15:27:12.976Z,17.30
2022-09-20T15:29:40.135Z,17.45
2022-09-20T15:32:10.562Z,17.81
2022-09-20T15:34:38.113Z,18.06
2022-09-20T15:37:05.184Z,18.02
2022-09-20T15:39:32.237Z,18.17
2022-09-20T15:41:59.249Z,18.25
2022-09-20T15:44:26.210Z,18.09
2022-09-20T15:46:53.643Z,18.07
2022-09-20T15:49:22.060Z,18.07
2022-09-20T15:51:49.378Z,18.02
2022-09-20T15:54:16.948Z,17.96
2022-09-20T15:56:43.987Z,17.86
2022-09-20T15:59:13.266Z,17.70
2022-09-20T16:01:44.540Z,17.56
2022-09-20T16:04:21.049Z,17.43
2022-09-20T16:06:50.382Z,17.36
2022-09-20T16:09:18.511Z,17.27
2022-09-20T16:11:49.086Z,17.19
2022-09-20T16:14:16.804Z,17.12
2022-09-20T16:16:43.980Z,17.09
2022-09-20T16:19:24.867Z,17.08
2022-09-20T16:21:58.943Z,17.07
2022-09-20T16:24:33.933Z,17.12
2022-09-20T16:27:04.537Z,17.08
2022-09-20T16:29:33.462Z,17.08
2022-09-20T16:32:03.534Z,17.07
2022-09-20T16:34:36.218Z,17.08
2022-09-20T16:37:08.816Z,17.05
2022-09-20T16:39:36.857Z,17.07
2022-09-20T16:42:08.690Z,17.04
2022-09-20T16:44:38.933Z,17.10
2022-09-20T16:47:13.187Z,17.18
2022-09-20T16:49:40.167Z,17.20
2022-09-20T16:52:09.127Z,17.21
2022-09-20T16:54:36.341Z,17.21
2022-09-20T16:57:03.577Z,17.18
2022-09-20T16:59:30.798Z,17.10
2022-09-20T17:01:58.887Z,17.02
2022-09-20T17:04:26.071Z,16.97
2022-09-20T17:06:53.350Z,16.90
2022-09-20T17:09:20.931Z,16.80
2022-09-20T17:11:50.401Z,16.66
2022-09-20T17:14:20.753Z,16.53
2022-09-20T17:16:50.375Z,16.37
2022-09-20T17:19:29.225Z,16.22
2022-09-20T17:21:56.366Z,16.07
2022-09-20T17:24:26.417Z,15.90
2022-09-20T17:26:53.823Z,15.72
2022-09-20T17:29:21.070Z,15.53
2022-09-20T17:31:55.546Z,15.37
2022-09-20T17:34:25.322Z,15.26
2022-09-20T17:36:54.957Z,15.13
2022-09-20T17:39:22.484Z,15.02
2022-09-20T17:41:50.714Z,14.95
2022-09-20T17:44:19.874Z,14.89
2022-09-20T17:46:49.913Z,14.84
2022-09-20T17:49:20.591Z,14.74
2022-09-20T17:51:55.329Z,14.66
2022-09-20T17:54:24.079Z,14.55
2022-09-20T17:56:55.679Z,14.42
2022-09-20T17:59:23.035Z,14.32
2022-09-20T18:01:54.215Z,14.23
2022-09-20T18:04:22.330Z,14.13
2022-09-20T18:06:52.245Z,14.02
2022-09-20T18:09:24.080Z,13.94
2022-09-20T18:11:54.390Z,13.82
2022-09-20T18:14:27.446Z,13.74
2022-09-20T18:17:00.692Z,13.64
2022-09-20T18:19:35.669Z,13.55
2022-09-20T18:22:04.234Z,13.47
2022-09-20T18:24:31.698Z,13.38
2022-09-20T18:27:00.779Z,13.30
2022-09-20T18:29:29.154Z,13.22
2022-09-20T18:31:57.735Z,13.13
2022-09-20T18:34:31.936Z,13.08
2022-09-20T18:37:01.721Z,13.01
2022-09-20T18:39:32.513Z,12.97
2022-09-20T18:42:00.241Z,12.92
2022-09-20T18:44:34.236Z,12.86
2022-09-20T18:47:04.925Z,12.79
2022-09-20T18:49:32.551Z,12.73
2022-09-20T18:51:59.640Z,12.67
2022-09-20T18:54:30.383Z,12.61
2022-09-20T18:56:58.141Z,12.54
2022-09-20T18:59:27.742Z,12.46
2022-09-20T19:02:45.570Z,12.37
2022-09-20T19:05:37.023Z,12.32
2022-09-20T19:08:34.172Z,12.24
2022-09-20T19:11:09.963Z,12.17
2022-09-20T19:14:05.193Z,12.10
2022-09-20T19:16:41.303Z,12.03
2022-09-20T19:19:40.877Z,11.96
2022-09-20T19:22:51.449Z,11.85
2022-09-20T19:25:44.014Z,11.73
2022-09-20T19:28:14.973Z,11.62
2022-09-20T19:30:42.922Z,11.53
2022-09-20T19:33:17.929Z,11.45
2022-09-20T19:35:54.436Z,11.36
2022-09-20T19:38:45.192Z,11.28
2022-09-20T19:41:47.240Z,11.18
2022-09-20T19:44:59.227Z,11.13
2022-09-20T19:48:15.943Z,11.07
2022-09-20T19:50:48.478Z,10.99
2022-09-20T19:53:19.434Z,10.95
2022-09-20T19:55:52.071Z,10.91
2022-09-20T19:58:19.540Z,10.86
2022-09-20T20:00:47.874Z,10.80
2022-09-20T20:03:16.600Z,10.76
2022-09-20T20:06:08.391Z,10.69
2022-09-20T20:09:17.241Z,10.64
2022-09-20T20:12:05.371Z,10.56
2022-09-20T20:14:50.780Z,10.47
2022-09-20T20:18:16.682Z,10.38
2022-09-20T20:20:53.605Z,10.29
2022-09-20T20:23:50.176Z,10.23
2022-09-20T20:26:25.349Z,10.18
2022-09-20T20:28:52.921Z,10.13
2022-09-20T20:31:21.420Z,10.09
2022-09-20T20:33:49.389Z,10.05
2022-09-20T20:36:17.461Z,10.02
2022-09-20T20:38:49.649Z,9.97
2022-09-20T20:41:21.435Z,9.93
2022-09-20T20:43:57.137Z,9.91
2022-09-20T20:46:26.003Z,9.86
2022-09-20T20:48:53.171Z,9.85
2022-09-20T20:51:23.108Z,9.82
2022-09-20T20:53:53.218Z,9.78
2022-09-20T20:56:27.522Z,9.75
2022-09-20T20:58:55.957Z,9.71
2022-09-20T21:01:29.002Z,9.66
2022-09-20T21:03:57.635Z,9.63
2022-09-20T21:06:34.388Z,9.61
2022-09-20T21:09:03.858Z,9.55
2022-09-20T21:11:37.827Z,9.52
2022-09-20T21:14:07.310Z,9.46
2022-09-20T21:16:38.174Z,9.47
2022-09-20T21:19:06.276Z,9.44
2022-09-20T21:21:38.393Z,9.40
2022-09-20T21:24:08.627Z,9.40
2022-09-20T21:26:38.015Z,9.38
2022-09-20T21:29:08.346Z,9.40
2022-09-20T21:31:39.055Z,9.39
2022-09-20T21:34:08.130Z,9.38
2022-09-20T21:36:39.530Z,9.37
2022-09-20T21:39:06.612Z,9.36
2022-09-20T21:41:37.143Z,9.36
2022-09-20T21:44:06.569Z,9.34
2022-09-20T21:46:42.475Z,9.33
2022-09-20T21:49:12.018Z,9.31
2022-09-20T21:51:45.170Z,9.31
2022-09-20T21:54:12.411Z,9.31
2022-09-20T21:56:41.337Z,9.30
2022-09-20T21:59:09.428Z,9.32
2022-09-20T22:01:40.284Z,9.36
2022-09-20T22:04:12.113Z,9.38
2022-09-20T22:06:44.728Z,9.42
2022-09-20T22:09:17.542Z,9.48
2022-09-20T22:11:48.787Z,9.52
2022-09-20T22:14:19.409Z,9.56
2022-09-20T22:16:48.587Z,9.62
2022-09-20T22:19:18.651Z,9.66
2022-09-20T22:21:50.952Z,9.69
2022-09-20T22:24:19.307Z,9.72
2022-09-20T22:26:51.430Z,9.77
2022-09-20T22:29:19.118Z,9.79
2022-09-20T22:31:50.019Z,9.77
2022-09-20T22:34:23.536Z,9.79
2022-09-20T22:36:50.701Z,9.84
2022-09-20T22:39:18.133Z,9.90
2022-09-20T22:41:47.873Z,9.95
2022-09-20T22:44:15.142Z,10.01
2022-09-20T22:46:42.167Z,10.05
2022-09-20T22:49:09.784Z,10.09
2022-09-20T22:51:37.875Z,10.13
2022-09-20T22:54:11.754Z,10.16
2022-09-20T22:56:41.318Z,10.17
2022-09-20T22:59:12.520Z,10.20
2022-09-20T23:01:43.622Z,10.22
2022-09-20T23:04:14.467Z,10.25
2022-09-20T23:06:48.226Z,10.25
2022-09-20T23:09:17.960Z,10.29
2022-09-20T23:11:45.918Z,10.29
2022-09-20T23:14:20.267Z,10.30
2022-09-20T23:16:48.651Z,10.29
2022-09-20T23:19:16.266Z,10.30
2022-09-20T23:21:44.844Z,10.31
2022-09-20T23:24:14.488Z,10.33
2022-09-20T23:26:43.587Z,10.33
2022-09-20T23:29:14.388Z,10.33
2022-09-20T23:31:46.174Z,10.32
2022-09-20T23:34:15.798Z,10.29
2022-09-20T23:36:44.234Z,10.29
2022-09-20T23:39:12.435Z,10.30
2022-09-20T23:41:41.292Z,10.32
2022-09-20T23:44:10.218Z,10.32
2022-09-20T23:46:38.518Z,10.31
2022-09-20T23:49:07.086Z,10.31
2022-09-20T23:51:35.336Z,10.32
2022-09-20T23:54:02.779Z,10.29
2022-09-20T23:56:30.223Z,10.28
2022-09-20T23:58:57.394Z,10.26
